createdAt,value
2022-11-25T00:00:53.061Z,100524.25
2022-11-25T00:03:19.468Z,100543.78
2022-11-25T00:05:45.902Z,100547.38
2022-11-25T00:08:12.228Z,100535.75
2022-11-25T00:10:38.536Z,100533.91
2022-11-25T00:13:04.957Z,100533.91
2022-11-25T00:15:31.443Z,100523.66
2022-11-25T00:17:57.755Z,100527.75
2022-11-25T00:20:24.104Z,100530.31
2022-11-25T00:22:50.765Z,100523.72
2022-11-25T00:25:17.088Z,100527.13
2022-11-25T00:27:43.398Z,100534.22
2022-11-25T00:30:10.440Z,100530.88
2022-11-25T00:32:36.772Z,100519.31
2022-11-25T00:35:03.291Z,100525.31
2022-11-25T00:37:29.632Z,100521.72
2022-11-25T00:39:55.934Z,100520.59
2022-11-25T00:42:40.711Z,100525.66
2022-11-25T00:45:07.726Z,100522.75
2022-11-25T00:47:34.042Z,100506.66
2022-11-25T00:50:00.472Z,100512.81
2022-11-25T00:52:27.110Z,100506.66
2022-11-25T00:54:54.263Z,100506.44
2022-11-25T00:57:22.626Z,100509.50
2022-11-25T00:59:49.029Z,100516.41
2022-11-25T01:02:16.877Z,100514.25
2022-11-25T01:04:43.371Z,100517.50
2022-11-25T01:07:10.611Z,100518.16
2022-11-25T01:09:37.626Z,100520.56
2022-11-25T01:12:04.757Z,100528.72
2022-11-25T01:14:31.682Z,100519.84
2022-11-25T01:16:58.069Z,100519.25
2022-11-25T01:19:24.869Z,100526.91
2022-11-25T01:21:51.271Z,100519.81
2022-11-25T01:24:18.350Z,100515.53
2022-11-25T01:26:45.386Z,100520.47
2022-11-25T01:29:17.452Z,100515.34
2022-11-25T01:31:44.915Z,100518.00
2022-11-25T01:34:17.381Z,100518.75
2022-11-25T01:36:44.337Z,100528.50
2022-11-25T01:39:17.965Z,100529.38
2022-11-25T01:41:44.975Z,100527.66
2022-11-25T01:44:20.420Z,100518.75
2022-11-25T01:47:04.719Z,100518.75
2022-11-25T01:50:04.914Z,100520.13
2022-11-25T01:52:35.286Z,100532.16
2022-11-25T01:55:17.800Z,100533.78
2022-11-25T01:57:50.642Z,100533.88
2022-11-25T02:00:18.079Z,100538.31
2022-11-25T02:02:46.536Z,100525.31
2022-11-25T02:05:16.540Z,100535.06
2022-11-25T02:07:47.649Z,100519.47
2022-11-25T02:10:22.680Z,100528.06
2022-11-25T02:12:49.497Z,100521.66
2022-11-25T02:15:16.696Z,100516.63
2022-11-25T02:17:44.291Z,100521.66
2022-11-25T02:20:20.365Z,100517.13
2022-11-25T02:23:10.274Z,100518.06
2022-11-25T02:25:40.878Z,100514.56
2022-11-25T02:28:13.143Z,100524.38
2022-11-25T02:30:39.898Z,100521.47
2022-11-25T02:33:06.826Z,100518.56
2022-11-25T02:35:34.640Z,100526.78
2022-11-25T02:38:16.222Z,100521.28
2022-11-25T02:41:00.126Z,100514.47
2022-11-25T02:43:27.065Z,100505.75
2022-11-25T02:45:59.827Z,100519.00
2022-11-25T02:48:52.912Z,100513.78
2022-11-25T02:51:17.081Z,100515.00
2022-11-25T02:53:43.730Z,100510.25
2022-11-25T02:56:11.456Z,100506.59
2022-11-25T02:58:37.850Z,100507.72
2022-11-25T03:01:04.467Z,100498.91
2022-11-25T03:03:30.913Z,100506.59
2022-11-25T03:05:57.301Z,100508.41
2022-11-25T03:08:23.751Z,100503.75
2022-11-25T03:10:50.207Z,100503.84
2022-11-25T03:13:16.615Z,100511.53
2022-11-25T03:15:43.014Z,100514.97
2022-11-25T03:18:09.488Z,100507.94
2022-11-25T03:20:36.409Z,100502.06
2022-11-25T03:23:04.382Z,100509.91
2022-11-25T03:25:31.076Z,100490.50
2022-11-25T03:27:57.564Z,100502.56
2022-11-25T03:30:26.181Z,100501.97
2022-11-25T03:32:52.469Z,100500.06
2022-11-25T03:35:18.891Z,100509.72
2022-11-25T03:37:45.370Z,100509.16
2022-11-25T03:40:13.520Z,100511.47
2022-11-25T03:42:40.767Z,100507.16
2022-11-25T03:45:08.807Z,100505.66
2022-11-25T03:47:35.194Z,100496.00
2022-11-25T03:50:01.662Z,100501.97
2022-11-25T03:52:28.218Z,100501.97
2022-11-25T03:54:54.604Z,100494.75
2022-11-25T03:57:20.961Z,100503.66
2022-11-25T03:59:47.667Z,100496.84
2022-11-25T04:02:14.219Z,100502.66
2022-11-25T04:04:40.672Z,100508.59
2022-11-25T04:07:07.038Z,100502.34
2022-11-25T04:09:33.394Z,100505.59
2022-11-25T04:12:18.303Z,100494.41
2022-11-25T04:14:44.686Z,100501.91
2022-11-25T04:17:11.086Z,100518.13
2022-11-25T04:19:37.460Z,100517.72
2022-11-25T04:22:03.848Z,100518.47
2022-11-25T04:24:30.209Z,100512.16
2022-11-25T04:26:56.572Z,100511.06
2022-11-25T04:29:23.049Z,100507.00
2022-11-25T04:31:49.418Z,100502.09
2022-11-25T04:34:15.835Z,100508.72
2022-11-25T04:36:42.209Z,100508.34
2022-11-25T04:39:08.541Z,100513.41
2022-11-25T04:41:34.907Z,100489.88
2022-11-25T04:44:01.343Z,100495.69
2022-11-25T04:46:34.215Z,100488.47
2022-11-25T04:49:00.701Z,100488.22
2022-11-25T04:51:27.225Z,100487.25
2022-11-25T04:53:53.620Z,100493.78
2022-11-25T04:56:20.761Z,100488.38
2022-11-25T04:59:06.536Z,100484.78
2022-11-25T05:01:33.087Z,100488.66
2022-11-25T05:03:59.967Z,100487.13
2022-11-25T05:06:26.482Z,100493.47
2022-11-25T05:08:52.955Z,100497.25
2022-11-25T05:11:19.364Z,100496.78
2022-11-25T05:13:45.689Z,100493.13
2022-11-25T05:16:12.372Z,100494.63
2022-11-25T05:18:38.760Z,100496.53
2022-11-25T05:21:05.239Z,100497.09
2022-11-25T05:23:31.832Z,100502.00
2022-11-25T05:26:02.104Z,100496.50
2022-11-25T05:28:29.352Z,100507.41
2022-11-25T05:30:56.202Z,100504.66
2022-11-25T05:33:22.985Z,100506.56
2022-11-25T05:36:01.010Z,100496.50
2022-11-25T05:38:28.149Z,100504.28
2022-11-25T05:41:01.250Z,100507.50
2022-11-25T05:43:27.635Z,100507.25
2022-11-25T05:45:54.036Z,100519.34
2022-11-25T05:48:20.426Z,100513.84
2022-11-25T05:50:46.827Z,100523.56
2022-11-25T05:53:14.063Z,100519.16
2022-11-25T05:55:40.391Z,100515.38
2022-11-25T05:58:06.716Z,100531.03
2022-11-25T06:00:33.110Z,100529.16
2022-11-25T06:02:59.479Z,100538.91
2022-11-25T06:05:26.082Z,100543.72
2022-11-25T06:07:52.536Z,100548.28
2022-11-25T06:10:19.578Z,100526.84
2022-11-25T06:12:46.242Z,100545.47
2022-11-25T06:15:12.817Z,100534.25
2022-11-25T06:17:39.169Z,100537.97
2022-11-25T06:20:07.073Z,100540.22
2022-11-25T06:22:33.387Z,100540.22
2022-11-25T06:25:03.594Z,100546.13
2022-11-25T06:27:44.249Z,100537.88
2022-11-25T06:30:18.036Z,100560.06
2022-11-25T06:32:44.671Z,100562.34
2022-11-25T06:35:11.110Z,100558.25
2022-11-25T06:37:37.679Z,100559.28
2022-11-25T06:40:04.801Z,100564.59
2022-11-25T06:42:31.415Z,100555.84
2022-11-25T06:44:57.783Z,100559.19
2022-11-25T06:47:24.174Z,100552.09
2022-11-25T06:49:50.555Z,100561.19
2022-11-25T06:52:16.994Z,100567.44
2022-11-25T06:54:43.615Z,100563.63
2022-11-25T06:57:12.082Z,100575.22
2022-11-25T06:59:38.402Z,100569.81
2022-11-25T07:02:05.006Z,100570.50
2022-11-25T07:04:31.480Z,100578.25
2022-11-25T07:06:57.829Z,100586.06
2022-11-25T07:09:24.835Z,100586.06
2022-11-25T07:11:51.222Z,100587.56
2022-11-25T07:14:17.647Z,100587.34
2022-11-25T07:16:45.718Z,100591.56
2022-11-25T07:19:15.361Z,100594.00
2022-11-25T07:21:44.298Z,100593.06
2022-11-25T07:24:12.427Z,100594.75
2022-11-25T07:26:40.767Z,100596.50
2022-11-25T07:29:36.420Z,100594.50
2022-11-25T07:31:59.445Z,100601.41
2022-11-25T07:34:25.799Z,100598.47
2022-11-25T07:36:52.145Z,100603.59
2022-11-25T07:39:21.124Z,100602.38
2022-11-25T07:41:52.408Z,100598.00
2022-11-25T07:44:19.692Z,100596.00
2022-11-25T07:46:48.944Z,100608.16
2022-11-25T07:49:17.865Z,100609.56
2022-11-25T07:51:49.530Z,100610.88
2022-11-25T07:54:15.953Z,100623.91
2022-11-25T07:56:44.595Z,100617.31
2022-11-25T07:59:14.771Z,100613.53
2022-11-25T08:01:42.314Z,100619.50
2022-11-25T08:04:16.476Z,100620.06
2022-11-25T08:06:47.387Z,100610.19
2022-11-25T08:09:18.469Z,100608.09
2022-11-25T08:11:45.400Z,100603.81
2022-11-25T08:14:11.779Z,100613.22
2022-11-25T08:16:38.899Z,100619.28
2022-11-25T08:19:09.141Z,100606.72
2022-11-25T08:21:35.463Z,100618.03
2022-11-25T08:24:03.010Z,100619.75
2022-11-25T08:26:32.681Z,100621.34
2022-11-25T08:29:00.480Z,100627.50
2022-11-25T08:31:29.467Z,100630.94
2022-11-25T08:33:56.543Z,100633.28
2022-11-25T08:36:23.552Z,100626.47
2022-11-25T08:38:52.457Z,100628.72
2022-11-25T08:41:22.245Z,100612.69
2022-11-25T08:43:49.208Z,100627.63
2022-11-25T08:46:19.390Z,100619.56
2022-11-25T08:48:45.883Z,100620.22
2022-11-25T08:51:18.623Z,100631.41
2022-11-25T08:53:46.311Z,100641.09
2022-11-25T08:56:13.236Z,100645.16
2022-11-25T08:58:39.722Z,100645.25
2022-11-25T09:01:07.112Z,100638.47
2022-11-25T09:03:40.220Z,100641.13
2022-11-25T09:06:07.837Z,100654.16
2022-11-25T09:08:34.870Z,100657.56
2022-11-25T09:11:01.999Z,100659.25
2022-11-25T09:13:28.364Z,100671.00
2022-11-25T09:15:54.864Z,100669.06
2022-11-25T09:18:25.906Z,100667.19
2022-11-25T09:20:53.763Z,100668.88
2022-11-25T09:23:20.387Z,100669.53
2022-11-25T09:25:57.705Z,100679.03
2022-11-25T09:28:26.895Z,100686.59
2022-11-25T09:30:53.432Z,100684.59
2022-11-25T09:33:20.202Z,100692.56
2022-11-25T09:35:47.353Z,100691.50
2022-11-25T09:38:13.793Z,100690.56
2022-11-25T09:41:01.502Z,100695.59
2022-11-25T09:44:06.158Z,100695.38
2022-11-25T09:46:48.381Z,100707.53
2022-11-25T09:49:44.855Z,100703.91
2022-11-25T09:52:23.411Z,100704.66
2022-11-25T09:55:04.557Z,100702.56
2022-11-25T09:57:44.677Z,100704.28
2022-11-25T10:00:20.641Z,100696.06
2022-11-25T10:03:12.593Z,100712.59
2022-11-25T10:05:45.604Z,100709.50
2022-11-25T10:08:16.358Z,100717.41
2022-11-25T10:10:50.919Z,100710.28
2022-11-25T10:13:25.389Z,100723.38
2022-11-25T10:15:54.330Z,100715.38
2022-11-25T10:18:30.921Z,100720.72
2022-11-25T10:20:57.329Z,100731.47
2022-11-25T10:23:36.183Z,100741.09
2022-11-25T10:26:17.789Z,100734.59
2022-11-25T10:29:13.195Z,100731.63
2022-11-25T10:31:42.362Z,100734.78
2022-11-25T10:34:26.900Z,100732.13
2022-11-25T10:36:55.371Z,100722.78
2022-11-25T10:39:35.048Z,100727.84
2022-11-25T10:42:12.733Z,100731.09
2022-11-25T10:44:41.235Z,100722.31
2022-11-25T10:47:34.446Z,100721.28
2022-11-25T10:50:11.629Z,100720.28
2022-11-25T10:52:45.030Z,100736.34
2022-11-25T10:55:19.884Z,100730.28
2022-11-25T10:57:46.250Z,100727.03
2022-11-25T11:00:34.924Z,100737.84
2022-11-25T11:03:15.045Z,100735.91
2022-11-25T11:05:49.938Z,100744.03
2022-11-25T11:08:18.350Z,100747.66
2022-11-25T11:10:45.971Z,100750.66
2022-11-25T11:13:25.695Z,100749.16
2022-11-25T11:15:54.182Z,100747.41
2022-11-25T11:18:23.614Z,100748.78
2022-11-25T11:20:53.028Z,100752.16
2022-11-25T11:23:20.285Z,100756.06
2022-11-25T11:25:56.347Z,100755.31
2022-11-25T11:28:35.984Z,100760.28
2022-11-25T11:31:06.287Z,100756.91
2022-11-25T11:33:42.453Z,100765.53
2022-11-25T11:36:36.870Z,100765.81
2022-11-25T11:39:21.613Z,100756.19
2022-11-25T11:42:00.239Z,100767.50
2022-11-25T11:45:11.702Z,100765.03
2022-11-25T11:48:02.175Z,100769.09
2022-11-25T11:50:28.651Z,100764.84
2022-11-25T11:53:30.574Z,100768.19
2022-11-25T11:59:15.521Z,100770.78
2022-11-25T12:01:50.745Z,100774.16
2022-11-25T12:04:39.015Z,100777.09
2022-11-25T12:07:21.019Z,100778.34
2022-11-25T12:09:56.898Z,100785.16
2022-11-25T12:12:34.743Z,100786.13
2022-11-25T12:15:10.271Z,100787.47
2022-11-25T12:17:42.132Z,100792.22
2022-11-25T12:20:22.542Z,100790.50
2022-11-25T12:23:11.223Z,100792.72
2022-11-25T12:25:41.334Z,100786.03
2022-11-25T12:28:14.272Z,100781.75
2022-11-25T12:31:05.680Z,100784.09
2022-11-25T12:33:59.184Z,100788.34
2022-11-25T12:36:40.227Z,100797.09
2022-11-25T12:39:28.585Z,100791.50
2022-11-25T12:42:01.605Z,100801.47
2022-11-25T12:44:37.782Z,100804.41
2022-11-25T12:47:10.679Z,100803.44
2022-11-25T12:49:46.835Z,100801.59
2022-11-25T12:52:23.297Z,100807.56
2022-11-25T12:55:22.123Z,100812.19
2022-11-25T12:58:22.649Z,100813.38
2022-11-25T13:01:08.289Z,100816.78
2022-11-25T13:04:08.818Z,100817.16
2022-11-25T13:06:51.211Z,100821.66
2022-11-25T13:09:29.761Z,100823.13
2022-11-25T13:12:18.012Z,100831.88
2022-11-25T13:15:00.374Z,100833.47
2022-11-25T13:17:29.497Z,100835.31
2022-11-25T13:20:27.338Z,100842.09
2022-11-25T13:23:13.528Z,100845.03
2022-11-25T13:25:42.410Z,100853.06
2022-11-25T13:28:30.649Z,100851.50
2022-11-25T13:31:16.074Z,100850.00
2022-11-25T13:33:42.549Z,100853.28
2022-11-25T13:36:42.671Z,100851.56
2022-11-25T13:39:15.929Z,100854.13
2022-11-25T13:41:47.379Z,100863.78
2022-11-25T13:44:19.367Z,100862.34
2022-11-25T13:46:49.207Z,100859.91
2022-11-25T13:49:50.045Z,100877.03
2022-11-25T13:52:34.571Z,100883.50
2022-11-25T13:55:29.660Z,100879.72
2022-11-25T13:58:14.467Z,100897.00
2022-11-25T14:00:57.617Z,100889.63
2022-11-25T14:03:24.413Z,100898.25
2022-11-25T14:06:28.131Z,100905.69
2022-11-25T14:09:33.755Z,100907.47
2022-11-25T14:12:15.750Z,100915.63
2022-11-25T14:14:57.355Z,100908.56
2022-11-25T14:17:48.471Z,100911.03
2022-11-25T14:20:44.999Z,100907.13
2022-11-25T14:23:30.210Z,100914.69
2022-11-25T14:26:08.463Z,100915.56
2022-11-25T14:28:53.665Z,100915.78
2022-11-25T14:31:28.868Z,100926.59
2022-11-25T14:34:01.252Z,100919.06
2022-11-25T14:36:36.302Z,100912.09
2022-11-25T14:39:06.105Z,100923.78
2022-11-25T14:41:37.975Z,100927.56
2022-11-25T14:44:14.168Z,100924.38
2022-11-25T14:46:58.081Z,100925.81
2022-11-25T14:49:59.570Z,100933.38
2022-11-25T14:52:29.426Z,100937.09
2022-11-25T14:54:57.945Z,100934.81
2022-11-25T14:57:34.544Z,100938.59
2022-11-25T15:00:16.415Z,100935.91
2022-11-25T15:03:01.397Z,100941.84
2022-11-25T15:05:33.867Z,100949.03
2022-11-25T15:08:02.626Z,100950.63
2022-11-25T15:10:35.928Z,100949.88
2022-11-25T15:13:12.895Z,100951.31
2022-11-25T15:15:39.641Z,100953.72
2022-11-25T15:18:07.109Z,100957.03
2022-11-25T15:20:36.358Z,100956.19
2022-11-25T15:23:12.355Z,100956.63
2022-11-25T15:25:52.569Z,100968.78
2022-11-25T15:28:19.309Z,100968.41
2022-11-25T15:31:00.416Z,100972.41
2022-11-25T15:33:28.978Z,100975.81
2022-11-25T15:35:55.998Z,100980.13
2022-11-25T15:38:43.789Z,100981.09
2022-11-25T15:41:29.868Z,100990.84
2022-11-25T15:43:59.684Z,100989.38
2022-11-25T15:46:27.222Z,100989.66
2022-11-25T15:48:58.514Z,101004.44
2022-11-25T15:51:30.521Z,101003.69
2022-11-25T15:54:03.191Z,101011.72
2022-11-25T15:56:33.209Z,101015.50
2022-11-25T15:59:01.892Z,101010.16
2022-11-25T16:01:29.723Z,101018.16
2022-11-25T16:04:11.277Z,101017.69
2022-11-25T16:06:52.768Z,101023.41
2022-11-25T16:09:22.181Z,101020.94
2022-11-25T16:11:48.474Z,101031.00
2022-11-25T16:14:27.277Z,101031.63
2022-11-25T16:17:08.503Z,101033.69
2022-11-25T16:19:42.432Z,101033.91
2022-11-25T16:22:14.773Z,101026.84
2022-11-25T16:24:57.233Z,101019.25
2022-11-25T16:27:29.243Z,101033.59
2022-11-25T16:30:08.099Z,101037.97
2022-11-25T16:32:34.431Z,101026.31
2022-11-25T16:35:15.056Z,101032.13
2022-11-25T16:37:47.073Z,101048.34
2022-11-25T16:40:16.719Z,101050.19
2022-11-25T16:42:47.221Z,101047.97
2022-11-25T16:45:22.585Z,101052.66
2022-11-25T16:47:49.168Z,101059.69
2022-11-25T16:50:18.009Z,101063.78
2022-11-25T16:52:45.249Z,101072.09
2022-11-25T16:55:11.666Z,101069.00
2022-11-25T16:57:39.542Z,101075.44
2022-11-25T17:00:11.411Z,101073.59
2022-11-25T17:02:38.728Z,101089.88
2022-11-25T17:05:18.461Z,101093.59
2022-11-25T17:07:45.038Z,101096.25
2022-11-25T17:10:11.745Z,101093.47
2022-11-25T17:12:41.806Z,101094.34
2022-11-25T17:15:20.552Z,101096.38
2022-11-25T17:17:48.551Z,101100.97
2022-11-25T17:20:21.560Z,101098.81
2022-11-25T17:22:48.726Z,101109.09
2022-11-25T17:25:15.382Z,101112.72
2022-11-25T17:27:42.953Z,101112.94
2022-11-25T17:30:20.285Z,101126.19
2022-11-25T17:32:47.598Z,101128.09
2022-11-25T17:35:21.007Z,101134.31
2022-11-25T17:37:48.525Z,101115.38
2022-11-25T17:40:15.401Z,101127.47
2022-11-25T17:42:42.812Z,101141.56
2022-11-25T17:45:18.758Z,101144.03
2022-11-25T17:47:46.078Z,101148.84
2022-11-25T17:50:23.916Z,101145.41
2022-11-25T17:52:51.168Z,101160.38
2022-11-25T17:55:19.799Z,101157.59
2022-11-25T17:57:47.659Z,101166.38
2022-11-25T18:00:16.784Z,101160.38
2022-11-25T18:02:43.428Z,101176.31
2022-11-25T18:05:14.014Z,101164.53
2022-11-25T18:07:40.484Z,101174.72
2022-11-25T18:10:07.573Z,101175.09
2022-11-25T18:12:36.415Z,101179.59
2022-11-25T18:15:08.036Z,101181.06
2022-11-25T18:17:36.353Z,101193.00
2022-11-25T18:20:21.058Z,101200.06
2022-11-25T18:22:48.866Z,101205.22
2022-11-25T18:25:19.143Z,101208.06
2022-11-25T18:27:47.122Z,101205.50
2022-11-25T18:30:20.072Z,101216.09
2022-11-25T18:32:46.794Z,101219.53
2022-11-25T18:35:21.661Z,101223.69
2022-11-25T18:37:48.659Z,101215.69
2022-11-25T18:40:15.847Z,101230.75
2022-11-25T18:42:44.652Z,101225.22
2022-11-25T18:45:16.988Z,101233.25
2022-11-25T18:47:43.304Z,101228.84
2022-11-25T18:50:15.195Z,101249.16
2022-11-25T18:52:41.803Z,101242.28
2022-11-25T18:55:08.621Z,101255.53
2022-11-25T18:57:34.988Z,101258.22
2022-11-25T19:00:31.611Z,101258.66
2022-11-25T19:02:49.311Z,101255.00
2022-11-25T19:05:18.052Z,101274.94
2022-11-25T19:07:46.498Z,101282.31
2022-11-25T19:10:14.134Z,101285.84
2022-11-25T19:12:44.427Z,101293.28
2022-11-25T19:15:15.090Z,101301.59
2022-11-25T19:17:45.311Z,101310.38
2022-11-25T19:20:30.159Z,101304.44
2022-11-25T19:23:00.987Z,101309.78
2022-11-25T19:25:28.555Z,101309.25
2022-11-25T19:27:58.350Z,101309.78
2022-11-25T19:30:27.942Z,101313.25
2022-11-25T19:32:57.970Z,101318.50
2022-11-25T19:35:35.872Z,101315.44
2022-11-25T19:38:02.661Z,101334.41
2022-11-25T19:40:33.457Z,101334.31
2022-11-25T19:43:02.553Z,101329.91
2022-11-25T19:45:29.343Z,101334.78
2022-11-25T19:47:55.931Z,101343.34
2022-11-25T19:50:25.875Z,101336.09
2022-11-25T19:52:53.175Z,101342.41
2022-11-25T19:55:22.561Z,101339.16
2022-11-25T19:57:49.891Z,101345.94
2022-11-25T20:00:18.245Z,101345.56
2022-11-25T20:02:45.868Z,101353.28
2022-11-25T20:05:22.409Z,101359.19
2022-11-25T20:07:48.791Z,101357.47
2022-11-25T20:10:33.010Z,101371.78
2022-11-25T20:12:59.349Z,101375.69
2022-11-25T20:15:26.173Z,101373.06
2022-11-25T20:17:55.761Z,101377.06
2022-11-25T20:20:27.348Z,101393.16
2022-11-25T20:22:59.514Z,101382.84
2022-11-25T20:25:27.599Z,101396.66
2022-11-25T20:27:54.231Z,101403.41
2022-11-25T20:30:24.256Z,101408.50
2022-11-25T20:32:51.002Z,101409.13
2022-11-25T20:35:17.556Z,101415.59
2022-11-25T20:37:51.220Z,101426.81
2022-11-25T20:40:24.842Z,101427.16
2022-11-25T20:42:51.992Z,101443.28
2022-11-25T20:45:23.237Z,101437.06
2022-11-25T20:47:50.860Z,101446.88
2022-11-25T20:50:19.580Z,101453.44
2022-11-25T20:52:48.074Z,101448.09
2022-11-25T20:55:15.845Z,101445.69
2022-11-25T20:57:42.435Z,101456.75
2022-11-25T21:00:16.165Z,101466.41
2022-11-25T21:02:42.648Z,101464.59
2022-11-25T21:05:09.115Z,101467.38
2022-11-25T21:07:35.670Z,101466.13
2022-11-25T21:10:02.060Z,101472.50
2022-11-25T21:12:28.431Z,101473.81
2022-11-25T21:14:54.796Z,101477.00
2022-11-25T21:17:21.184Z,101474.34
2022-11-25T21:19:47.478Z,101477.28
2022-11-25T21:22:14.693Z,101470.50
2022-11-25T21:24:42.182Z,101470.50
2022-11-25T21:27:16.188Z,101471.25
2022-11-25T21:29:44.882Z,101469.53
2022-11-25T21:32:22.341Z,101461.72
2022-11-25T21:34:49.886Z,101484.69
2022-11-25T21:37:19.444Z,101480.44
2022-11-25T21:39:45.787Z,101484.91
2022-11-25T21:42:19.029Z,101488.00
2022-11-25T21:44:46.133Z,101494.91
2022-11-25T21:47:17.985Z,101499.44
2022-11-25T21:49:45.083Z,101494.72
2022-11-25T21:52:11.581Z,101507.72
2022-11-25T21:54:38.585Z,101509.78
2022-11-25T21:57:05.617Z,101516.59
2022-11-25T21:59:32.003Z,101517.44
2022-11-25T22:01:58.294Z,101521.75
2022-11-25T22:04:24.648Z,101521.81
2022-11-25T22:06:52.245Z,101517.94
2022-11-25T22:09:18.907Z,101517.00
2022-11-25T22:11:47.963Z,101517.41
2022-11-25T22:14:34.253Z,101513.00
2022-11-25T22:17:03.474Z,101518.75
2022-11-25T22:19:29.784Z,101529.41
2022-11-25T22:21:56.258Z,101525.59
2022-11-25T22:24:22.962Z,101523.78
2022-11-25T22:26:57.487Z,101535.47
2022-11-25T22:29:32.018Z,101533.50
2022-11-25T22:31:58.442Z,101542.19
2022-11-25T22:34:25.353Z,101545.81
2022-11-25T22:36:52.145Z,101542.19
2022-11-25T22:39:24.237Z,101551.91
2022-11-25T22:41:53.737Z,101546.22
2022-11-25T22:44:34.649Z,101566.56
2022-11-25T22:47:01.364Z,101570.56
2022-11-25T22:49:49.657Z,101573.00
2022-11-25T22:52:25.890Z,101572.09
2022-11-25T22:54:52.553Z,101582.19
2022-11-25T22:57:19.199Z,101578.50
2022-11-25T22:59:45.588Z,101577.25
2022-11-25T23:02:21.546Z,101574.50
2022-11-25T23:04:52.410Z,101570.34
2022-11-25T23:07:23.212Z,101572.22
2022-11-25T23:09:50.576Z,101572.94
2022-11-25T23:12:17.560Z,101582.25
2022-11-25T23:14:44.960Z,101580.38
2022-11-25T23:17:19.569Z,101594.69
2022-11-25T23:19:46.587Z,101593.41
2022-11-25T23:22:12.905Z,101595.06
2022-11-25T23:24:44.994Z,101598.81
2022-11-25T23:27:12.187Z,101603.75
2022-11-25T23:29:38.675Z,101585.19
2022-11-25T23:32:08.065Z,101596.69
2022-11-25T23:34:34.827Z,101602.03
2022-11-25T23:37:01.403Z,101598.69
2022-11-25T23:39:27.892Z,101605.06
2022-11-25T23:41:54.242Z,101602.97
2022-11-25T23:44:25.097Z,101605.44
2022-11-25T23:46:58.700Z,101608.22
2022-11-25T23:49:32.830Z,101615.88
2022-11-25T23:52:07.555Z,101613.22
2022-11-25T23:54:40.517Z,101613.72
2022-11-25T23:57:18.402Z,101611.25
2022-11-25T23:59:45.473Z,101603.50
